sensor_id;sensor_type;location;lat;lon;timestamp;temperature;humidity
20915;DHT22;10617;52.032;5.298;2022-11-09T00:00:51;13.90;99.90
20915;DHT22;10617;52.032;5.298;2022-11-09T00:20:04;13.70;99.90
20915;DHT22;10617;52.032;5.298;2022-11-09T00:24:06;13.60;99.90
20915;DHT22;10617;52.032;5.298;2022-11-09T00:28:07;13.60;99.90
20915;DHT22;10617;52.032;5.298;2022-11-09T00:32:09;13.50;99.90
20915;DHT22;10617;52.032;5.298;2022-11-09T00:36:11;13.50;99.90
20915;DHT22;10617;52.032;5.298;2022-11-09T00:40:13;13.50;99.90
20915;DHT22;10617;52.032;5.298;2022-11-09T00:44:14;13.50;99.90
20915;DHT22;10617;52.032;5.298;2022-11-09T00:48:16;13.50;99.90
20915;DHT22;10617;52.032;5.298;2022-11-09T00:52:17;13.50;99.90
20915;DHT22;10617;52.032;5.298;2022-11-09T00:56:19;13.50;99.90
20915;DHT22;10617;52.032;5.298;2022-11-09T01:00:22;13.50;99.90
20915;DHT22;10617;52.032;5.298;2022-11-09T01:04:24;13.60;99.90
20915;DHT22;10617;52.032;5.298;2022-11-09T01:08:25;13.60;99.90
20915;DHT22;10617;52.032;5.298;2022-11-09T01:12:27;13.60;99.90
20915;DHT22;10617;52.032;5.298;2022-11-09T01:16:29;13.60;99.90
20915;DHT22;10617;52.032;5.298;2022-11-09T01:20:30;13.60;99.90
20915;DHT22;10617;52.032;5.298;2022-11-09T01:24:32;13.60;99.90
20915;DHT22;10617;52.032;5.298;2022-11-09T01:33:46;13.60;99.90
20915;DHT22;10617;52.032;5.298;2022-11-09T01:37:48;13.60;99.90
20915;DHT22;10617;52.032;5.298;2022-11-09T01:41:50;13.60;99.90
20915;DHT22;10617;52.032;5.298;2022-11-09T01:45:55;13.50;99.90
20915;DHT22;10617;52.032;5.298;2022-11-09T01:49:59;13.40;99.90
20915;DHT22;10617;52.032;5.298;2022-11-09T01:54:02;13.40;99.90
20915;DHT22;10617;52.032;5.298;2022-11-09T01:58:06;13.40;99.90
20915;DHT22;10617;52.032;5.298;2022-11-09T02:02:09;13.30;99.90
20915;DHT22;10617;52.032;5.298;2022-11-09T02:06:11;13.30;99.90
20915;DHT22;10617;52.032;5.298;2022-11-09T02:10:31;13.30;99.90
20915;DHT22;10617;52.032;5.298;2022-11-09T02:14:34;13.30;99.90
20915;DHT22;10617;52.032;5.298;2022-11-09T02:18:37;13.30;99.90
20915;DHT22;10617;52.032;5.298;2022-11-09T02:22:40;13.30;99.90
20915;DHT22;10617;52.032;5.298;2022-11-09T02:26:49;13.30;99.90
20915;DHT22;10617;52.032;5.298;2022-11-09T02:30:51;13.30;99.90
20915;DHT22;10617;52.032;5.298;2022-11-09T02:34:53;13.30;99.90
20915;DHT22;10617;52.032;5.298;2022-11-09T02:38:55;13.30;99.90
20915;DHT22;10617;52.032;5.298;2022-11-09T02:42:58;13.30;99.90
20915;DHT22;10617;52.032;5.298;2022-11-09T02:47:00;13.30;99.90
20915;DHT22;10617;52.032;5.298;2022-11-09T02:51:02;13.30;99.90
20915;DHT22;10617;52.032;5.298;2022-11-09T02:55:04;13.30;99.90
20915;DHT22;10617;52.032;5.298;2022-11-09T02:59:06;13.40;99.90
20915;DHT22;10617;52.032;5.298;2022-11-09T03:03:08;13.40;99.90
20915;DHT22;10617;52.032;5.298;2022-11-09T03:07:09;13.40;99.90
20915;DHT22;10617;52.032;5.298;2022-11-09T03:11:11;13.40;99.90
20915;DHT22;10617;52.032;5.298;2022-11-09T03:15:13;13.40;99.90
20915;DHT22;10617;52.032;5.298;2022-11-09T03:19:15;13.40;99.90
20915;DHT22;10617;52.032;5.298;2022-11-09T03:23:16;13.40;99.90
20915;DHT22;10617;52.032;5.298;2022-11-09T03:27:18;13.30;99.90
20915;DHT22;10617;52.032;5.298;2022-11-09T03:31:20;13.30;99.90
20915;DHT22;10617;52.032;5.298;2022-11-09T03:35:21;13.20;99.90
20915;DHT22;10617;52.032;5.298;2022-11-09T03:39:23;13.20;99.90
20915;DHT22;10617;52.032;5.298;2022-11-09T03:43:25;13.10;99.90
20915;DHT22;10617;52.032;5.298;2022-11-09T03:47:26;13.10;99.90
20915;DHT22;10617;52.032;5.298;2022-11-09T03:51:28;13.10;99.90
20915;DHT22;10617;52.032;5.298;2022-11-09T03:55:30;13.00;99.90
20915;DHT22;10617;52.032;5.298;2022-11-09T03:59:31;13.00;99.90
20915;DHT22;10617;52.032;5.298;2022-11-09T04:03:33;13.00;99.90
20915;DHT22;10617;52.032;5.298;2022-11-09T04:07:35;12.90;99.90
20915;DHT22;10617;52.032;5.298;2022-11-09T04:11:36;12.90;99.90
20915;DHT22;10617;52.032;5.298;2022-11-09T04:15:38;12.90;99.90
20915;DHT22;10617;52.032;5.298;2022-11-09T04:19:39;12.80;99.90
20915;DHT22;10617;52.032;5.298;2022-11-09T04:23:41;12.80;99.90
20915;DHT22;10617;52.032;5.298;2022-11-09T04:27:43;12.80;99.90
20915;DHT22;10617;52.032;5.298;2022-11-09T04:31:46;12.80;99.90
20915;DHT22;10617;52.032;5.298;2022-11-09T04:35:48;12.70;99.90
20915;DHT22;10617;52.032;5.298;2022-11-09T04:39:50;12.70;99.90
20915;DHT22;10617;52.032;5.298;2022-11-09T04:43:51;12.60;99.90
20915;DHT22;10617;52.032;5.298;2022-11-09T04:47:57;12.70;99.90
20915;DHT22;10617;52.032;5.298;2022-11-09T04:51:59;12.60;99.90
20915;DHT22;10617;52.032;5.298;2022-11-09T04:56:01;12.70;99.90
20915;DHT22;10617;52.032;5.298;2022-11-09T05:00:04;12.70;99.90
20915;DHT22;10617;52.032;5.298;2022-11-09T05:04:06;12.70;99.90
20915;DHT22;10617;52.032;5.298;2022-11-09T05:08:08;12.70;99.90
20915;DHT22;10617;52.032;5.298;2022-11-09T05:12:10;12.70;99.90
20915;DHT22;10617;52.032;5.298;2022-11-09T05:16:11;12.70;99.90
20915;DHT22;10617;52.032;5.298;2022-11-09T05:20:13;12.60;99.90
20915;DHT22;10617;52.032;5.298;2022-11-09T05:24:14;12.60;99.90
20915;DHT22;10617;52.032;5.298;2022-11-09T05:28:16;12.50;99.90
20915;DHT22;10617;52.032;5.298;2022-11-09T05:32:18;12.50;99.90
20915;DHT22;10617;52.032;5.298;2022-11-09T05:36:20;12.50;99.90
20915;DHT22;10617;52.032;5.298;2022-11-09T05:40:22;12.50;99.90
20915;DHT22;10617;52.032;5.298;2022-11-09T05:44:23;12.40;99.90
20915;DHT22;10617;52.032;5.298;2022-11-09T05:48:25;12.40;99.90
20915;DHT22;10617;52.032;5.298;2022-11-09T05:52:27;12.40;99.90
20915;DHT22;10617;52.032;5.298;2022-11-09T05:56:29;12.40;99.90
20915;DHT22;10617;52.032;5.298;2022-11-09T06:00:31;12.40;99.90
20915;DHT22;10617;52.032;5.298;2022-11-09T06:04:32;12.40;99.90
20915;DHT22;10617;52.032;5.298;2022-11-09T06:08:34;12.40;99.90
20915;DHT22;10617;52.032;5.298;2022-11-09T06:12:36;12.40;99.90
20915;DHT22;10617;52.032;5.298;2022-11-09T06:16:38;12.30;99.90
20915;DHT22;10617;52.032;5.298;2022-11-09T06:20:39;12.30;99.90
20915;DHT22;10617;52.032;5.298;2022-11-09T06:34:41;12.30;99.90
20915;DHT22;10617;52.032;5.298;2022-11-09T06:38:47;12.20;99.90
20915;DHT22;10617;52.032;5.298;2022-11-09T06:42:49;12.20;99.90
20915;DHT22;10617;52.032;5.298;2022-11-09T06:46:50;12.20;99.90
20915;DHT22;10617;52.032;5.298;2022-11-09T06:50:52;12.20;99.90
20915;DHT22;10617;52.032;5.298;2022-11-09T06:54:54;12.20;99.90
20915;DHT22;10617;52.032;5.298;2022-11-09T06:58:55;12.20;99.90
20915;DHT22;10617;52.032;5.298;2022-11-09T07:02:57;12.20;99.90
20915;DHT22;10617;52.032;5.298;2022-11-09T07:06:59;12.20;99.90
20915;DHT22;10617;52.032;5.298;2022-11-09T07:11:02;12.20;99.90
20915;DHT22;10617;52.032;5.298;2022-11-09T07:15:04;12.20;99.90
20915;DHT22;10617;52.032;5.298;2022-11-09T07:19:06;12.20;99.90
20915;DHT22;10617;52.032;5.298;2022-11-09T07:23:07;12.20;99.90
20915;DHT22;10617;52.032;5.298;2022-11-09T07:27:09;12.30;99.90
20915;DHT22;10617;52.032;5.298;2022-11-09T07:31:11;12.30;99.90
20915;DHT22;10617;52.032;5.298;2022-11-09T07:35:12;12.30;99.90
20915;DHT22;10617;52.032;5.298;2022-11-09T07:39:14;12.30;99.90
20915;DHT22;10617;52.032;5.298;2022-11-09T07:43:16;12.30;99.90
20915;DHT22;10617;52.032;5.298;2022-11-09T07:47:19;12.40;99.90
20915;DHT22;10617;52.032;5.298;2022-11-09T07:51:20;12.40;99.90
20915;DHT22;10617;52.032;5.298;2022-11-09T07:55:22;12.50;99.90
20915;DHT22;10617;52.032;5.298;2022-11-09T07:59:24;12.50;99.90
20915;DHT22;10617;52.032;5.298;2022-11-09T08:03:26;12.50;99.90
20915;DHT22;10617;52.032;5.298;2022-11-09T08:07:28;12.50;99.90
20915;DHT22;10617;52.032;5.298;2022-11-09T08:11:29;12.60;99.90
20915;DHT22;10617;52.032;5.298;2022-11-09T08:15:32;12.60;99.90
20915;DHT22;10617;52.032;5.298;2022-11-09T08:19:33;12.70;99.90
20915;DHT22;10617;52.032;5.298;2022-11-09T08:23:35;12.70;99.90
20915;DHT22;10617;52.032;5.298;2022-11-09T08:27:37;12.80;99.90
20915;DHT22;10617;52.032;5.298;2022-11-09T08:31:40;12.90;99.90
20915;DHT22;10617;52.032;5.298;2022-11-09T08:35:42;12.90;99.90
20915;DHT22;10617;52.032;5.298;2022-11-09T08:39:43;13.00;99.90
20915;DHT22;10617;52.032;5.298;2022-11-09T08:43:45;13.10;99.90
20915;DHT22;10617;52.032;5.298;2022-11-09T08:47:47;13.10;99.90
20915;DHT22;10617;52.032;5.298;2022-11-09T08:51:48;13.20;99.90
20915;DHT22;10617;52.032;5.298;2022-11-09T08:55:50;13.30;99.90
20915;DHT22;10617;52.032;5.298;2022-11-09T08:59:52;13.40;99.90
20915;DHT22;10617;52.032;5.298;2022-11-09T09:03:53;13.50;99.90
20915;DHT22;10617;52.032;5.298;2022-11-09T09:07:57;13.70;99.90
20915;DHT22;10617;52.032;5.298;2022-11-09T09:11:59;13.80;99.90
20915;DHT22;10617;52.032;5.298;2022-11-09T09:16:11;13.90;99.90
20915;DHT22;10617;52.032;5.298;2022-11-09T09:20:13;14.00;99.90
20915;DHT22;10617;52.032;5.298;2022-11-09T09:24:15;14.10;99.90
20915;DHT22;10617;52.032;5.298;2022-11-09T09:28:16;14.10;99.90
20915;DHT22;10617;52.032;5.298;2022-11-09T09:32:18;14.00;99.90
20915;DHT22;10617;52.032;5.298;2022-11-09T09:36:21;14.10;99.90
20915;DHT22;10617;52.032;5.298;2022-11-09T09:40:29;14.20;99.90
20915;DHT22;10617;52.032;5.298;2022-11-09T09:48:53;13.90;99.90
20915;DHT22;10617;52.032;5.298;2022-11-09T09:52:59;13.90;99.90
20915;DHT22;10617;52.032;5.298;2022-11-09T09:57:21;13.90;99.90
20915;DHT22;10617;52.032;5.298;2022-11-09T10:01:26;14.00;99.90
20915;DHT22;10617;52.032;5.298;2022-11-09T10:05:35;14.10;99.90
20915;DHT22;10617;52.032;5.298;2022-11-09T10:09:44;14.20;99.90
20915;DHT22;10617;52.032;5.298;2022-11-09T10:22:21;14.60;99.90
20915;DHT22;10617;52.032;5.298;2022-11-09T10:30:28;14.40;99.90
20915;DHT22;10617;52.032;5.298;2022-11-09T10:34:36;14.30;99.90
20915;DHT22;10617;52.032;5.298;2022-11-09T10:38:41;14.60;99.90
20915;DHT22;10617;52.032;5.298;2022-11-09T10:42:48;15.00;99.90
20915;DHT22;10617;52.032;5.298;2022-11-09T10:47:00;15.30;99.90
20915;DHT22;10617;52.032;5.298;2022-11-09T10:51:02;15.30;99.90
20915;DHT22;10617;52.032;5.298;2022-11-09T11:03:38;14.70;99.90
20915;DHT22;10617;52.032;5.298;2022-11-09T11:07:40;14.90;99.90
20915;DHT22;10617;52.032;5.298;2022-11-09T11:11:41;14.80;99.90
20915;DHT22;10617;52.032;5.298;2022-11-09T11:15:43;15.00;99.90
20915;DHT22;10617;52.032;5.298;2022-11-09T11:19:45;14.90;99.90
20915;DHT22;10617;52.032;5.298;2022-11-09T11:24:15;14.80;99.90
20915;DHT22;10617;52.032;5.298;2022-11-09T11:28:20;14.60;99.90
20915;DHT22;10617;52.032;5.298;2022-11-09T11:32:23;14.60;99.90
20915;DHT22;10617;52.032;5.298;2022-11-09T11:40:37;14.60;99.90
20915;DHT22;10617;52.032;5.298;2022-11-09T11:44:53;14.50;99.90
20915;DHT22;10617;52.032;5.298;2022-11-09T11:49:36;14.40;99.90
20915;DHT22;10617;52.032;5.298;2022-11-09T11:57:48;13.80;99.90
20915;DHT22;10617;52.032;5.298;2022-11-09T12:06:17;13.20;99.90
20915;DHT22;10617;52.032;5.298;2022-11-09T12:10:23;13.00;99.90
20915;DHT22;10617;52.032;5.298;2022-11-09T12:23:16;13.40;99.90
20915;DHT22;10617;52.032;5.298;2022-11-09T12:35:39;14.10;99.90
20915;DHT22;10617;52.032;5.298;2022-11-09T12:39:48;14.00;99.90
20915;DHT22;10617;52.032;5.298;2022-11-09T12:43:54;14.20;99.90
20915;DHT22;10617;52.032;5.298;2022-11-09T12:47:57;14.60;99.90
20915;DHT22;10617;52.032;5.298;2022-11-09T12:52:01;14.50;99.90
20915;DHT22;10617;52.032;5.298;2022-11-09T12:56:12;14.50;99.90
20915;DHT22;10617;52.032;5.298;2022-11-09T13:04:35;14.70;99.90
20915;DHT22;10617;52.032;5.298;2022-11-09T13:08:38;14.80;99.90
20915;DHT22;10617;52.032;5.298;2022-11-09T13:12:41;14.70;99.90
20915;DHT22;10617;52.032;5.298;2022-11-09T13:16:43;14.70;99.90
20915;DHT22;10617;52.032;5.298;2022-11-09T13:20:45;14.70;99.90
20915;DHT22;10617;52.032;5.298;2022-11-09T13:24:57;14.70;99.90
20915;DHT22;10617;52.032;5.298;2022-11-09T13:29:16;14.60;99.90
20915;DHT22;10617;52.032;5.298;2022-11-09T13:33:21;14.50;99.90
20915;DHT22;10617;52.032;5.298;2022-11-09T13:41:41;14.40;99.90
20915;DHT22;10617;52.032;5.298;2022-11-09T13:49:51;14.40;99.90
20915;DHT22;10617;52.032;5.298;2022-11-09T13:57:54;14.60;99.90
20915;DHT22;10617;52.032;5.298;2022-11-09T14:01:58;14.50;99.90
20915;DHT22;10617;52.032;5.298;2022-11-09T14:06:00;14.60;99.90
20915;DHT22;10617;52.032;5.298;2022-11-09T14:10:07;14.50;99.90
20915;DHT22;10617;52.032;5.298;2022-11-09T14:18:37;14.40;99.90
20915;DHT22;10617;52.032;5.298;2022-11-09T14:22:40;14.40;99.90
20915;DHT22;10617;52.032;5.298;2022-11-09T14:26:58;14.30;99.90
20915;DHT22;10617;52.032;5.298;2022-11-09T14:31:00;14.30;99.90
20915;DHT22;10617;52.032;5.298;2022-11-09T14:39:27;14.20;99.90
20915;DHT22;10617;52.032;5.298;2022-11-09T14:43:41;14.20;99.90
20915;DHT22;10617;52.032;5.298;2022-11-09T14:47:44;14.10;99.90
20915;DHT22;10617;52.032;5.298;2022-11-09T14:51:47;14.10;99.90
20915;DHT22;10617;52.032;5.298;2022-11-09T14:55:49;14.00;99.90
20915;DHT22;10617;52.032;5.298;2022-11-09T14:59:51;14.00;99.90
20915;DHT22;10617;52.032;5.298;2022-11-09T15:08:13;14.00;99.90
20915;DHT22;10617;52.032;5.298;2022-11-09T15:12:16;14.00;99.90
20915;DHT22;10617;52.032;5.298;2022-11-09T15:16:23;14.00;99.90
20915;DHT22;10617;52.032;5.298;2022-11-09T15:20:28;13.90;99.90
20915;DHT22;10617;52.032;5.298;2022-11-09T15:24:43;13.90;99.90
20915;DHT22;10617;52.032;5.298;2022-11-09T15:28:46;13.90;99.90
20915;DHT22;10617;52.032;5.298;2022-11-09T15:32:48;13.90;99.90
20915;DHT22;10617;52.032;5.298;2022-11-09T15:36:53;13.90;99.90
20915;DHT22;10617;52.032;5.298;2022-11-09T15:40:55;13.80;99.90
20915;DHT22;10617;52.032;5.298;2022-11-09T15:44:57;13.80;99.90
20915;DHT22;10617;52.032;5.298;2022-11-09T15:53:20;13.60;99.90
20915;DHT22;10617;52.032;5.298;2022-11-09T15:57:22;13.60;99.90
20915;DHT22;10617;52.032;5.298;2022-11-09T16:01:24;13.60;99.90
20915;DHT22;10617;52.032;5.298;2022-11-09T16:05:25;13.40;99.90
20915;DHT22;10617;52.032;5.298;2022-11-09T16:14:32;13.40;99.90
20915;DHT22;10617;52.032;5.298;2022-11-09T16:18:34;13.30;99.90
20915;DHT22;10617;52.032;5.298;2022-11-09T16:22:35;13.20;99.90
20915;DHT22;10617;52.032;5.298;2022-11-09T16:26:37;13.20;99.90
20915;DHT22;10617;52.032;5.298;2022-11-09T16:30:38;13.10;99.90
20915;DHT22;10617;52.032;5.298;2022-11-09T16:34:45;13.10;99.90
20915;DHT22;10617;52.032;5.298;2022-11-09T16:38:58;13.00;99.90
20915;DHT22;10617;52.032;5.298;2022-11-09T16:43:04;13.00;99.90
20915;DHT22;10617;52.032;5.298;2022-11-09T16:47:07;12.90;99.90
20915;DHT22;10617;52.032;5.298;2022-11-09T16:51:09;13.00;99.90
20915;DHT22;10617;52.032;5.298;2022-11-09T16:55:11;13.00;99.90
20915;DHT22;10617;52.032;5.298;2022-11-09T16:59:13;13.00;99.90
20915;DHT22;10617;52.032;5.298;2022-11-09T17:03:14;13.00;99.90
20915;DHT22;10617;52.032;5.298;2022-11-09T17:07:16;13.00;99.90
20915;DHT22;10617;52.032;5.298;2022-11-09T17:11:18;12.90;99.90
20915;DHT22;10617;52.032;5.298;2022-11-09T17:15:20;12.90;99.90
20915;DHT22;10617;52.032;5.298;2022-11-09T17:19:22;12.90;99.90
20915;DHT22;10617;52.032;5.298;2022-11-09T17:23:24;12.90;99.90
20915;DHT22;10617;52.032;5.298;2022-11-09T17:27:26;12.90;99.90
20915;DHT22;10617;52.032;5.298;2022-11-09T17:31:27;12.80;99.90
20915;DHT22;10617;52.032;5.298;2022-11-09T17:35:29;12.80;99.90
20915;DHT22;10617;52.032;5.298;2022-11-09T17:39:36;12.80;99.90
20915;DHT22;10617;52.032;5.298;2022-11-09T17:43:39;12.80;99.90
20915;DHT22;10617;52.032;5.298;2022-11-09T17:47:41;12.80;99.90
20915;DHT22;10617;52.032;5.298;2022-11-09T17:51:42;12.80;99.90
20915;DHT22;10617;52.032;5.298;2022-11-09T17:55:47;12.80;99.90
20915;DHT22;10617;52.032;5.298;2022-11-09T17:59:48;12.80;99.90
20915;DHT22;10617;52.032;5.298;2022-11-09T18:03:50;12.70;99.90
20915;DHT22;10617;52.032;5.298;2022-11-09T18:07:51;12.70;99.90
20915;DHT22;10617;52.032;5.298;2022-11-09T18:11:53;12.60;99.90
20915;DHT22;10617;52.032;5.298;2022-11-09T18:15:55;12.60;99.90
20915;DHT22;10617;52.032;5.298;2022-11-09T18:19:56;12.60;99.90
20915;DHT22;10617;52.032;5.298;2022-11-09T18:23:58;12.60;99.90
20915;DHT22;10617;52.032;5.298;2022-11-09T18:28:00;12.50;99.90
20915;DHT22;10617;52.032;5.298;2022-11-09T18:32:01;12.50;99.90
20915;DHT22;10617;52.032;5.298;2022-11-09T18:45:11;12.50;99.90
20915;DHT22;10617;52.032;5.298;2022-11-09T18:49:13;12.50;99.90
20915;DHT22;10617;52.032;5.298;2022-11-09T18:53:15;12.50;99.90
20915;DHT22;10617;52.032;5.298;2022-11-09T18:57:16;12.40;99.90
20915;DHT22;10617;52.032;5.298;2022-11-09T19:01:21;12.40;99.90
20915;DHT22;10617;52.032;5.298;2022-11-09T19:05:26;12.40;99.90
20915;DHT22;10617;52.032;5.298;2022-11-09T19:09:27;12.30;99.90
20915;DHT22;10617;52.032;5.298;2022-11-09T19:13:29;12.30;99.90
20915;DHT22;10617;52.032;5.298;2022-11-09T19:17:31;12.30;99.90
20915;DHT22;10617;52.032;5.298;2022-11-09T19:25:34;12.30;99.90
20915;DHT22;10617;52.032;5.298;2022-11-09T19:29:36;12.30;99.90
20915;DHT22;10617;52.032;5.298;2022-11-09T19:33:38;12.30;99.90
20915;DHT22;10617;52.032;5.298;2022-11-09T19:37:39;12.30;99.90
20915;DHT22;10617;52.032;5.298;2022-11-09T19:41:41;12.20;99.90
20915;DHT22;10617;52.032;5.298;2022-11-09T19:45:43;12.20;99.90
20915;DHT22;10617;52.032;5.298;2022-11-09T19:49:45;12.10;99.90
20915;DHT22;10617;52.032;5.298;2022-11-09T19:53:47;12.10;99.90
20915;DHT22;10617;52.032;5.298;2022-11-09T19:57:49;12.00;99.90
20915;DHT22;10617;52.032;5.298;2022-11-09T20:01:51;11.90;99.90
20915;DHT22;10617;52.032;5.298;2022-11-09T20:05:53;11.80;99.90
20915;DHT22;10617;52.032;5.298;2022-11-09T20:09:54;11.70;99.90
20915;DHT22;10617;52.032;5.298;2022-11-09T20:13:56;11.70;99.90
20915;DHT22;10617;52.032;5.298;2022-11-09T20:18:06;11.70;99.90
20915;DHT22;10617;52.032;5.298;2022-11-09T20:22:07;11.70;99.90
20915;DHT22;10617;52.032;5.298;2022-11-09T20:26:10;11.70;99.90
20915;DHT22;10617;52.032;5.298;2022-11-09T20:30:12;11.60;99.90
20915;DHT22;10617;52.032;5.298;2022-11-09T20:34:13;11.60;99.90
20915;DHT22;10617;52.032;5.298;2022-11-09T20:38:15;11.60;99.90
20915;DHT22;10617;52.032;5.298;2022-11-09T20:42:16;11.50;99.90
20915;DHT22;10617;52.032;5.298;2022-11-09T20:46:19;11.50;99.90
20915;DHT22;10617;52.032;5.298;2022-11-09T20:50:21;11.50;99.90
20915;DHT22;10617;52.032;5.298;2022-11-09T20:54:23;11.50;99.90
20915;DHT22;10617;52.032;5.298;2022-11-09T20:58:25;11.50;99.90
20915;DHT22;10617;52.032;5.298;2022-11-09T21:02:27;11.60;99.90
20915;DHT22;10617;52.032;5.298;2022-11-09T21:06:29;11.60;99.90
20915;DHT22;10617;52.032;5.298;2022-11-09T21:10:31;11.50;99.90
20915;DHT22;10617;52.032;5.298;2022-11-09T21:14:33;11.50;99.90
20915;DHT22;10617;52.032;5.298;2022-11-09T21:18:34;11.50;99.90
20915;DHT22;10617;52.032;5.298;2022-11-09T21:22:36;11.50;99.90
20915;DHT22;10617;52.032;5.298;2022-11-09T21:26:56;11.50;99.90
20915;DHT22;10617;52.032;5.298;2022-11-09T21:31:17;11.50;99.90
20915;DHT22;10617;52.032;5.298;2022-11-09T21:35:18;11.50;99.90
20915;DHT22;10617;52.032;5.298;2022-11-09T21:39:20;11.50;99.90
20915;DHT22;10617;52.032;5.298;2022-11-09T21:43:21;11.40;99.90
20915;DHT22;10617;52.032;5.298;2022-11-09T21:47:23;11.30;99.90
20915;DHT22;10617;52.032;5.298;2022-11-09T21:51:25;11.20;99.90
20915;DHT22;10617;52.032;5.298;2022-11-09T21:55:26;11.10;99.90
20915;DHT22;10617;52.032;5.298;2022-11-09T21:59:28;11.10;99.90
20915;DHT22;10617;52.032;5.298;2022-11-09T22:03:30;11.00;99.90
20915;DHT22;10617;52.032;5.298;2022-11-09T22:07:32;10.90;99.90
20915;DHT22;10617;52.032;5.298;2022-11-09T22:11:34;10.80;99.90
20915;DHT22;10617;52.032;5.298;2022-11-09T22:15:56;10.70;99.90
20915;DHT22;10617;52.032;5.298;2022-11-09T22:20:07;10.70;99.90
20915;DHT22;10617;52.032;5.298;2022-11-09T22:24:27;10.60;99.90
20915;DHT22;10617;52.032;5.298;2022-11-09T22:28:29;10.60;99.90
20915;DHT22;10617;52.032;5.298;2022-11-09T22:32:32;10.60;99.90
20915;DHT22;10617;52.032;5.298;2022-11-09T22:36:33;10.60;99.90
20915;DHT22;10617;52.032;5.298;2022-11-09T22:40:35;10.60;99.90
20915;DHT22;10617;52.032;5.298;2022-11-09T22:44:37;10.60;99.90
20915;DHT22;10617;52.032;5.298;2022-11-09T22:48:38;10.60;99.90
20915;DHT22;10617;52.032;5.298;2022-11-09T22:52:40;10.60;99.90
20915;DHT22;10617;52.032;5.298;2022-11-09T22:56:42;10.60;99.90
20915;DHT22;10617;52.032;5.298;2022-11-09T23:00:44;10.60;99.90
20915;DHT22;10617;52.032;5.298;2022-11-09T23:04:45;10.70;99.90
20915;DHT22;10617;52.032;5.298;2022-11-09T23:08:47;10.60;99.90
20915;DHT22;10617;52.032;5.298;2022-11-09T23:12:49;10.70;99.90
20915;DHT22;10617;52.032;5.298;2022-11-09T23:16:50;10.70;99.90
20915;DHT22;10617;52.032;5.298;2022-11-09T23:20:52;10.70;99.90
20915;DHT22;10617;52.032;5.298;2022-11-09T23:24:54;10.60;99.90
20915;DHT22;10617;52.032;5.298;2022-11-09T23:29:15;10.60;99.90
20915;DHT22;10617;52.032;5.298;2022-11-09T23:33:16;10.60;99.90
20915;DHT22;10617;52.032;5.298;2022-11-09T23:37:18;10.60;99.90
20915;DHT22;10617;52.032;5.298;2022-11-09T23:51:27;10.40;99.90
20915;DHT22;10617;52.032;5.298;2022-11-09T23:55:29;10.40;99.90
20915;DHT22;10617;52.032;5.298;2022-11-09T23:59:31;10.40;99.90
